Time;durP1;ratioP1;P1;durP2;ratioP2;P2;SDS_P1;SDS_P2;PMS_P1;PMS_P2;Temp;Humidity;BMP_temperature;BMP_pressure;BME280_temperature;BME280_humidity;BME280_pressure;Samples;Min_cycle;Max_cycle;Signal;HPM_P1;HPM_P2
2021/12/02 00:01:08;;;;;;;11.25;2.60;;;3.70;99.90;;;;;;5030147;28;20049;-44
2021/12/02 00:03:36;;;;;;;12.18;1.75;;;3.70;99.90;;;;;;5013868;28;20552;-44
2021/12/02 00:06:03;;;;;;;10.95;1.42;;;3.60;99.90;;;;;;5014395;28;20053;-45
2021/12/02 00:08:30;;;;;;;7.85;1.80;;;3.60;99.90;;;;;;5013922;28;20132;-44
2021/12/02 00:10:57;;;;;;;10.85;2.13;;;3.60;99.90;;;;;;5013913;28;20081;-44
2021/12/02 00:13:28;;;;;;;11.43;1.38;;;3.60;99.90;;;;;;5014414;28;20401;-45
2021/12/02 00:15:57;;;;;;;6.63;1.40;;;3.60;99.90;;;;;;5032099;28;20056;-44
2021/12/02 00:21:10;;;;;;;10.70;1.50;;;3.60;99.90;;;;;;5032167;28;20042;-44
2021/12/02 00:23:38;;;;;;;13.77;1.23;;;3.50;99.90;;;;;;5013668;28;20116;-45
2021/12/02 00:26:08;;;;;;;10.18;1.58;;;3.50;99.90;;;;;;5014618;28;20042;-44
2021/12/02 00:28:36;;;;;;;8.65;1.30;;;3.60;99.90;;;;;;5031417;28;20050;-44
2021/12/02 00:31:03;;;;;;;13.30;1.48;;;3.50;99.90;;;;;;5006626;28;20076;-44
2021/12/02 00:33:33;;;;;;;13.32;1.60;;;3.60;99.90;;;;;;5031804;28;20140;-45
2021/12/02 00:36:01;;;;;;;7.10;1.70;;;3.60;99.90;;;;;;5031510;28;20054;-46
2021/12/02 00:38:28;;;;;;;5.50;0.90;;;3.60;99.90;;;;;;5013660;28;20057;-44
2021/12/02 00:40:55;;;;;;;10.75;1.38;;;3.60;99.90;;;;;;5014563;28;20103;-44
2021/12/02 00:43:22;;;;;;;7.95;1.17;;;3.60;99.90;;;;;;5016154;28;20134;-44
2021/12/02 00:45:49;;;;;;;7.00;1.20;;;3.60;99.90;;;;;;5012196;28;20128;-44
2021/12/02 00:48:16;;;;;;;8.55;1.05;;;3.60;99.90;;;;;;5011980;28;20056;-45
2021/12/02 00:50:48;;;;;;;8.70;1.65;;;3.60;99.90;;;;;;4994700;28;20108;-45
2021/12/02 00:53:15;;;;;;;6.25;1.50;;;3.60;99.90;;;;;;5011408;28;20046;-44
2021/12/02 00:55:42;;;;;;;6.65;1.08;;;3.50;99.90;;;;;;4993723;28;20057;-44
2021/12/02 00:58:09;;;;;;;10.55;1.33;;;3.50;99.90;;;;;;4993397;28;20046;-44
2021/12/02 01:00:36;;;;;;;6.65;1.00;;;3.50;99.90;;;;;;4999785;28;20492;-44
2021/12/02 01:03:03;;;;;;;12.63;1.25;;;3.50;99.90;;;;;;4994009;28;20087;-44
2021/12/02 01:05:30;;;;;;;11.57;1.25;;;3.50;99.90;;;;;;4994439;28;20500;-45
2021/12/02 01:08:00;;;;;;;6.68;0.98;;;3.50;99.90;;;;;;5008247;28;20478;-44
2021/12/02 01:10:27;;;;;;;13.60;1.10;;;3.40;99.90;;;;;;5019250;28;20053;-44
2021/12/02 01:12:54;;;;;;;9.52;1.40;;;3.40;99.90;;;;;;5016025;28;20511;-44
2021/12/02 01:15:21;;;;;;;6.45;1.10;;;3.40;99.90;;;;;;4996885;28;20082;-44
2021/12/02 01:17:48;;;;;;;7.85;0.70;;;3.40;99.90;;;;;;5015569;28;20400;-44
2021/12/02 01:20:15;;;;;;;5.47;1.02;;;3.40;99.90;;;;;;4993857;28;20049;-44
2021/12/02 01:22:42;;;;;;;5.18;1.00;;;3.40;99.90;;;;;;4994040;28;20068;-44
2021/12/02 01:25:10;;;;;;;7.88;1.00;;;3.30;99.90;;;;;;4998352;28;20529;-44
2021/12/02 01:27:39;;;;;;;3.85;0.82;;;3.40;99.90;;;;;;4997770;28;20141;-44
2021/12/02 01:30:07;;;;;;;5.47;0.95;;;3.30;99.90;;;;;;4997853;28;20133;-44
2021/12/02 01:32:34;;;;;;;10.23;1.00;;;3.30;99.90;;;;;;5014929;28;20092;-44
2021/12/02 01:35:02;;;;;;;5.00;0.77;;;3.30;99.90;;;;;;4997168;28;20533;-45
2021/12/02 01:37:29;;;;;;;7.03;1.02;;;3.30;99.90;;;;;;4997432;28;20085;-45
2021/12/02 01:39:56;;;;;;;10.98;0.98;;;3.30;99.90;;;;;;5013553;28;20100;-44
2021/12/02 01:42:26;;;;;;;6.22;0.88;;;3.40;99.90;;;;;;5022277;28;20092;-44
2021/12/02 01:44:54;;;;;;;8.27;1.40;;;3.30;99.90;;;;;;5013217;28;20053;-44
2021/12/02 01:47:23;;;;;;;6.43;0.88;;;3.30;99.90;;;;;;5001366;28;20550;-44
2021/12/02 01:49:52;;;;;;;10.38;1.40;;;3.30;99.90;;;;;;5022623;28;20049;-48
2021/12/02 01:52:19;;;;;;;10.80;0.93;;;3.30;99.90;;;;;;5019353;28;20054;-45
2021/12/02 01:54:46;;;;;;;8.45;0.80;;;3.40;99.90;;;;;;5010632;28;20133;-45
2021/12/02 01:57:27;;;;;;;7.72;1.20;;;3.40;99.90;;;;;;5024193;28;20046;-44
2021/12/02 01:59:57;;;;;;;9.25;1.42;;;3.50;99.90;;;;;;5030118;28;20049;-44
2021/12/02 02:02:24;;;;;;;4.78;0.98;;;3.40;99.90;;;;;;5008498;28;20096;-46
2021/12/02 02:04:51;;;;;;;6.20;0.88;;;3.40;99.90;;;;;;4999942;28;20078;-45
2021/12/02 02:07:18;;;;;;;7.25;0.93;;;3.40;99.90;;;;;;5005947;28;20132;-45
2021/12/02 02:09:45;;;;;;;8.27;1.20;;;3.40;99.90;;;;;;5002016;28;20048;-44
2021/12/02 02:12:13;;;;;;;9.02;1.33;;;3.30;99.90;;;;;;5008490;28;20053;-44
2021/12/02 02:14:42;;;;;;;5.25;1.00;;;3.20;99.90;;;;;;5028412;28;20045;-46
2021/12/02 02:17:15;;;;;;;5.13;0.65;;;3.20;99.90;;;;;;4998398;28;20065;-45
2021/12/02 02:19:42;;;;;;;5.95;1.00;;;3.20;99.90;;;;;;5017816;28;20770;-45
2021/12/02 02:22:12;;;;;;;4.60;0.88;;;3.20;99.90;;;;;;5001669;28;20144;-47
2021/12/02 02:24:39;;;;;;;7.10;1.20;;;3.10;99.90;;;;;;5014848;28;20054;-44
2021/12/02 02:27:06;;;;;;;4.35;0.90;;;3.10;99.90;;;;;;5020544;28;20088;-47
2021/12/02 02:29:33;;;;;;;6.13;0.88;;;3.10;99.90;;;;;;5023792;28;20042;-45
2021/12/02 02:32:00;;;;;;;5.80;0.98;;;3.00;99.90;;;;;;5010148;28;20073;-44
2021/12/02 02:34:27;;;;;;;4.45;0.68;;;3.00;99.90;;;;;;5015228;28;20548;-45
2021/12/02 02:36:55;;;;;;;9.27;1.30;;;2.90;99.90;;;;;;5019199;28;20088;-45
2021/12/02 02:39:24;;;;;;;4.03;0.80;;;2.90;99.90;;;;;;5006339;28;20125;-45
2021/12/02 02:41:56;;;;;;;3.72;0.70;;;2.90;99.90;;;;;;5002106;28;20056;-45
2021/12/02 02:44:24;;;;;;;4.45;0.82;;;2.90;99.90;;;;;;5033242;28;20057;-44
2021/12/02 02:46:51;;;;;;;4.65;0.82;;;2.80;99.90;;;;;;5033259;28;20497;-46
2021/12/02 02:49:18;;;;;;;2.65;0.60;;;2.80;99.90;;;;;;5015046;28;20049;-46
2021/12/02 02:51:46;;;;;;;3.72;0.80;;;2.80;99.90;;;;;;5033219;28;20079;-45
2021/12/02 02:54:15;;;;;;;5.28;0.70;;;2.80;99.90;;;;;;5015845;28;20443;-44
2021/12/02 02:56:48;;;;;;;5.70;0.82;;;2.80;99.90;;;;;;5015101;28;20057;-44
2021/12/02 02:59:22;;;;;;;3.63;0.70;;;2.80;99.90;;;;;;5014882;28;20049;-45
2021/12/02 03:01:59;;;;;;;7.47;0.75;;;2.80;99.90;;;;;;5015222;28;20063;-45
2021/12/02 03:04:33;;;;;;;3.38;0.50;;;2.80;99.90;;;;;;5032909;28;20567;-44
2021/12/02 03:07:03;;;;;;;4.07;1.35;;;2.80;99.90;;;;;;5015303;28;20088;-44
2021/12/02 03:12:21;;;;;;;1.88;0.65;;;2.80;99.90;;;;;;5014492;28;20486;-45
2021/12/02 03:14:54;;;;;;;3.85;0.90;;;2.70;99.90;;;;;;5033215;28;20432;-42
2021/12/02 03:17:20;;;;;;;7.43;1.60;;;2.70;99.90;;;;;;5032301;28;20443;-44
2021/12/02 03:19:47;;;;;;;4.38;0.75;;;2.70;99.90;;;;;;5032016;28;20057;-44
2021/12/02 03:22:15;;;;;;;9.18;3.67;;;2.70;99.90;;;;;;5011877;28;20049;-44
2021/12/02 03:24:42;;;;;;;6.35;2.13;;;2.70;99.90;;;;;;5014283;28;20464;-44
2021/12/02 03:27:09;;;;;;;5.78;1.92;;;2.70;99.90;;;;;;5032665;28;20045;-45
2021/12/02 03:29:37;;;;;;;3.45;0.88;;;2.70;99.90;;;;;;5032602;28;20104;-44
2021/12/02 03:32:05;;;;;;;2.97;0.80;;;2.70;99.90;;;;;;5032612;28;20051;-46
2021/12/02 03:34:32;;;;;;;6.78;1.40;;;2.70;99.90;;;;;;5031706;28;20436;-44
2021/12/02 03:36:59;;;;;;;6.75;2.80;;;2.70;99.90;;;;;;5015097;28;20053;-44
2021/12/02 03:39:26;;;;;;;2.13;0.90;;;2.70;99.90;;;;;;5017548;28;20045;-44
2021/12/02 03:41:54;;;;;;;2.65;0.70;;;2.70;99.90;;;;;;5013234;28;20984;-45
2021/12/02 03:44:21;;;;;;;4.45;0.70;;;2.70;99.90;;;;;;5015082;28;20056;-44
2021/12/02 03:46:50;;;;;;;4.18;0.85;;;2.60;99.90;;;;;;5035494;28;20133;-44
2021/12/02 03:49:17;;;;;;;6.32;1.05;;;2.60;99.90;;;;;;5031847;28;20056;-44
2021/12/02 03:51:44;;;;;;;5.22;0.80;;;2.60;99.90;;;;;;5014860;28;20103;-44
2021/12/02 03:54:11;;;;;;;3.53;0.63;;;2.60;99.90;;;;;;5014840;28;20457;-45
2021/12/02 03:56:38;;;;;;;4.72;0.90;;;2.60;99.90;;;;;;5014576;28;20129;-44
2021/12/02 03:59:05;;;;;;;3.72;0.80;;;2.60;99.90;;;;;;5014651;28;20143;-44
2021/12/02 04:01:32;;;;;;;7.22;0.77;;;2.60;99.90;;;;;;5015002;28;20096;-44
2021/12/02 04:04:00;;;;;;;6.30;0.82;;;2.60;99.90;;;;;;5014290;28;20053;-47
2021/12/02 04:06:27;;;;;;;4.35;0.60;;;2.60;99.90;;;;;;5013935;28;20097;-45
2021/12/02 04:08:57;;;;;;;4.70;0.82;;;2.60;99.90;;;;;;5032140;28;20077;-45
2021/12/02 04:11:30;;;;;;;4.53;0.70;;;2.60;99.90;;;;;;5014504;28;20057;-44
2021/12/02 04:14:06;;;;;;;5.20;1.02;;;2.70;99.90;;;;;;5015104;28;20046;-45
2021/12/02 04:16:35;;;;;;;2.03;0.82;;;2.60;99.90;;;;;;5031743;28;20081;-44
2021/12/02 04:19:03;;;;;;;1.73;0.60;;;2.60;99.90;;;;;;5032087;28;20053;-45
2021/12/02 04:21:30;;;;;;;5.97;0.90;;;2.60;99.90;;;;;;5031717;28;20501;-45
2021/12/02 04:23:57;;;;;;;2.67;0.80;;;2.60;99.90;;;;;;5014469;28;20088;-45
2021/12/02 04:26:24;;;;;;;4.15;0.68;;;2.60;99.90;;;;;;5014636;28;20142;-44
2021/12/02 04:28:51;;;;;;;5.63;0.90;;;2.50;99.90;;;;;;5013169;28;20144;-44
2021/12/02 04:31:18;;;;;;;1.85;0.68;;;2.50;99.90;;;;;;5013867;28;20093;-44
2021/12/02 04:33:45;;;;;;;3.22;0.55;;;2.50;99.90;;;;;;5012952;28;20513;-47
2021/12/02 04:36:14;;;;;;;2.03;0.60;;;2.50;99.90;;;;;;5010740;28;20128;-45
2021/12/02 04:38:41;;;;;;;6.00;0.63;;;2.50;99.90;;;;;;5026369;28;20049;-45
2021/12/02 04:41:08;;;;;;;2.17;0.55;;;2.50;99.90;;;;;;5010825;28;20081;-44
2021/12/02 04:43:35;;;;;;;4.20;1.27;;;2.40;99.90;;;;;;5013405;28;20420;-46
2021/12/02 04:46:02;;;;;;;1.85;0.75;;;2.40;99.90;;;;;;5013561;28;20054;-44
2021/12/02 04:48:29;;;;;;;4.45;1.00;;;2.40;99.90;;;;;;5016040;28;20448;-45
2021/12/02 04:50:56;;;;;;;4.47;0.65;;;2.30;99.90;;;;;;5032337;28;20046;-45
2021/12/02 04:53:24;;;;;;;5.40;0.75;;;2.40;99.90;;;;;;5017196;28;20437;-45
2021/12/02 04:55:51;;;;;;;3.92;0.57;;;2.30;99.90;;;;;;5017196;28;20056;-45
2021/12/02 04:58:18;;;;;;;1.77;0.63;;;2.30;99.90;;;;;;5033061;28;20049;-44
2021/12/02 05:00:45;;;;;;;2.30;0.70;;;2.30;99.90;;;;;;5033340;28;20056;-46
2021/12/02 05:03:12;;;;;;;5.50;0.73;;;2.30;99.90;;;;;;5041594;28;20125;-45
2021/12/02 05:05:39;;;;;;;2.92;0.65;;;2.40;99.90;;;;;;5035131;28;20081;-44
2021/12/02 05:08:06;;;;;;;3.20;0.70;;;2.30;99.90;;;;;;5035536;28;20099;-45
2021/12/02 05:10:34;;;;;;;1.25;0.60;;;2.30;99.90;;;;;;5027377;28;20050;-44
2021/12/02 05:13:01;;;;;;;4.72;0.63;;;2.30;99.90;;;;;;5016930;28;20404;-45
2021/12/02 05:15:28;;;;;;;4.60;0.80;;;2.30;99.90;;;;;;5017065;28;20059;-45
2021/12/02 05:17:55;;;;;;;2.65;0.60;;;2.30;99.90;;;;;;5016978;28;20103;-47
2021/12/02 05:20:22;;;;;;;2.13;0.50;;;2.30;99.90;;;;;;5034477;28;20433;-45
2021/12/02 05:22:50;;;;;;;2.90;0.65;;;2.30;99.90;;;;;;5033739;28;20085;-46
2021/12/02 05:25:17;;;;;;;3.30;0.70;;;2.30;99.90;;;;;;5014704;28;20049;-45
2021/12/02 05:27:45;;;;;;;5.72;0.75;;;2.20;99.90;;;;;;5026953;28;20053;-46
2021/12/02 05:30:12;;;;;;;2.92;0.73;;;2.20;99.90;;;;;;5016223;28;20370;-46
2021/12/02 05:32:39;;;;;;;2.05;0.68;;;2.20;99.90;;;;;;5016045;28;20352;-45
2021/12/02 05:35:07;;;;;;;3.00;0.77;;;2.20;99.90;;;;;;5017300;28;20057;-45
2021/12/02 05:37:34;;;;;;;2.00;0.50;;;2.20;99.90;;;;;;5017185;28;20115;-45
2021/12/02 05:40:01;;;;;;;4.47;0.60;;;2.20;99.90;;;;;;5017150;28;20053;-46
2021/12/02 05:42:28;;;;;;;4.50;0.63;;;2.20;99.90;;;;;;5008858;28;20133;-45
2021/12/02 05:44:57;;;;;;;3.20;0.50;;;2.20;99.90;;;;;;4997379;28;20073;-45
2021/12/02 05:47:24;;;;;;;2.65;0.50;;;2.20;99.90;;;;;;5018365;28;20125;-45
2021/12/02 05:49:51;;;;;;;4.47;0.60;;;2.20;99.90;;;;;;4996657;28;20079;-46
2021/12/02 05:52:18;;;;;;;2.35;0.70;;;2.20;99.90;;;;;;4996990;28;20124;-45
2021/12/02 05:54:45;;;;;;;2.78;0.73;;;2.20;99.90;;;;;;4997167;28;20053;-46
2021/12/02 05:57:12;;;;;;;3.97;0.80;;;2.20;99.90;;;;;;4996377;28;20100;-45
2021/12/02 05:59:39;;;;;;;4.18;0.70;;;2.20;99.90;;;;;;4997803;28;20100;-44
2021/12/02 06:02:07;;;;;;;3.72;0.73;;;2.20;99.90;;;;;;4996781;28;20506;-46
2021/12/02 06:04:37;;;;;;;2.17;0.50;;;2.20;99.90;;;;;;4994258;28;20089;-45
2021/12/02 06:07:05;;;;;;;4.22;0.50;;;2.20;99.90;;;;;;4996047;28;20379;-49
2021/12/02 06:09:31;;;;;;;1.25;0.60;;;2.20;99.90;;;;;;5010379;28;20072;-44
2021/12/02 06:11:58;;;;;;;1.95;0.57;;;2.20;99.90;;;;;;5014161;28;20050;-45
2021/12/02 06:14:25;;;;;;;2.80;0.70;;;2.20;99.90;;;;;;4997895;28;20116;-44
2021/12/02 06:16:52;;;;;;;2.15;0.50;;;2.20;99.90;;;;;;5011522;28;20045;-44
2021/12/02 06:19:21;;;;;;;4.10;0.60;;;2.20;99.90;;;;;;5012433;28;20056;-44
2021/12/02 06:21:50;;;;;;;5.57;0.77;;;2.30;99.90;;;;;;5012760;28;20065;-44
2021/12/02 06:24:17;;;;;;;2.72;0.80;;;2.30;99.90;;;;;;4996613;28;20053;-45
2021/12/02 06:26:44;;;;;;;7.88;1.52;;;2.30;99.90;;;;;;4996469;28;20112;-44
2021/12/02 06:29:11;;;;;;;3.65;0.65;;;2.30;99.90;;;;;;4996732;28;20129;-44
2021/12/02 06:31:38;;;;;;;3.80;0.60;;;2.30;99.90;;;;;;4997913;28;20077;-44
2021/12/02 06:34:06;;;;;;;3.67;0.90;;;2.30;99.90;;;;;;5014157;28;20128;-44
2021/12/02 06:36:36;;;;;;;3.78;0.63;;;2.40;99.90;;;;;;5014647;28;20042;-44
2021/12/02 06:39:03;;;;;;;4.05;0.80;;;2.40;99.90;;;;;;5001458;28;20049;-47
2021/12/02 06:41:30;;;;;;;4.25;0.63;;;2.40;99.90;;;;;;4995006;28;20068;-46
2021/12/02 06:43:57;;;;;;;3.20;0.70;;;2.40;99.90;;;;;;4996659;28;20509;-45
2021/12/02 06:46:24;;;;;;;4.47;0.80;;;2.40;99.90;;;;;;4995323;28;20060;-45
2021/12/02 06:48:51;;;;;;;6.18;0.98;;;2.40;99.90;;;;;;4994441;28;20045;-44
2021/12/02 06:51:19;;;;;;;3.53;0.70;;;2.40;99.90;;;;;;4998475;28;20136;-44
2021/12/02 06:53:49;;;;;;;2.75;0.80;;;2.50;99.90;;;;;;5019076;28;20136;-44
2021/12/02 06:56:16;;;;;;;2.35;0.73;;;2.50;99.90;;;;;;4996804;28;20497;-44
2021/12/02 06:58:43;;;;;;;3.22;0.90;;;2.50;99.90;;;;;;5015210;28;20081;-44
2021/12/02 07:01:10;;;;;;;4.05;0.70;;;2.50;99.90;;;;;;4993334;28;20485;-44
2021/12/02 07:03:37;;;;;;;3.78;0.80;;;2.50;99.90;;;;;;5011121;28;20089;-44
2021/12/02 07:06:04;;;;;;;4.82;0.90;;;2.50;99.90;;;;;;5008836;28;20485;-44
2021/12/02 07:08:31;;;;;;;3.20;0.80;;;2.50;99.90;;;;;;5010361;28;20050;-45
2021/12/02 07:11:03;;;;;;;3.28;0.90;;;2.50;99.90;;;;;;5010771;28;20469;-43
2021/12/02 07:13:30;;;;;;;1.73;0.80;;;2.50;99.90;;;;;;5011564;28;20060;-44
2021/12/02 07:15:59;;;;;;;3.72;0.82;;;2.50;99.90;;;;;;5010882;28;20097;-44
2021/12/02 07:18:26;;;;;;;1.02;0.63;;;2.50;99.90;;;;;;5009585;28;20132;-44
2021/12/02 07:20:53;;;;;;;4.95;0.82;;;2.50;99.90;;;;;;5012206;28;20145;-44
2021/12/02 07:23:21;;;;;;;3.25;0.70;;;2.50;99.90;;;;;;5020041;28;20402;-46
2021/12/02 07:25:48;;;;;;;2.03;0.80;;;2.50;99.90;;;;;;5020496;28;20163;-45
2021/12/02 07:28:17;;;;;;;2.05;0.70;;;2.50;99.90;;;;;;4995507;28;20136;-43
2021/12/02 07:30:44;;;;;;;2.88;0.73;;;2.60;99.90;;;;;;5015361;28;20563;-44
2021/12/02 07:33:11;;;;;;;4.03;1.20;;;2.50;99.90;;;;;;5013439;28;20050;-45
2021/12/02 07:35:38;;;;;;;2.40;0.88;;;2.50;99.90;;;;;;4994958;28;20054;-45
2021/12/02 07:38:05;;;;;;;1.55;0.90;;;2.50;99.90;;;;;;5018977;28;20058;-44
2021/12/02 07:40:34;;;;;;;4.13;1.10;;;2.50;99.90;;;;;;5012868;28;20052;-45
2021/12/02 07:43:02;;;;;;;3.33;1.10;;;2.50;99.90;;;;;;5034199;28;20409;-44
2021/12/02 07:45:31;;;;;;;1.48;0.80;;;2.50;99.90;;;;;;5017727;28;20060;-45
2021/12/02 07:47:58;;;;;;;2.22;1.15;;;2.50;99.90;;;;;;5014865;28;20148;-44
2021/12/02 07:50:25;;;;;;;3.70;1.08;;;2.50;99.90;;;;;;5038204;28;20049;-44
2021/12/02 07:52:53;;;;;;;2.20;1.10;;;2.60;99.90;;;;;;5023880;28;20119;-43
2021/12/02 07:55:21;;;;;;;2.30;1.08;;;2.60;99.90;;;;;;5037406;28;20076;-44
2021/12/02 07:57:48;;;;;;;2.00;1.20;;;2.60;99.90;;;;;;5039374;28;20092;-44
2021/12/02 08:00:16;;;;;;;5.45;1.10;;;2.60;99.90;;;;;;5036255;28;20074;-45
2021/12/02 08:02:45;;;;;;;3.70;1.20;;;2.60;99.90;;;;;;5018193;28;20103;-44
2021/12/02 08:05:13;;;;;;;5.43;1.25;;;2.60;99.90;;;;;;5035823;28;20128;-44
2021/12/02 08:07:40;;;;;;;1.58;1.00;;;2.60;99.90;;;;;;5032246;28;20069;-44
2021/12/02 08:10:08;;;;;;;3.95;0.85;;;2.60;99.90;;;;;;5039587;28;20057;-44
2021/12/02 08:12:35;;;;;;;4.75;1.50;;;2.60;99.90;;;;;;5022416;28;20061;-44
2021/12/02 08:15:03;;;;;;;2.88;1.10;;;2.70;99.90;;;;;;5014389;28;20053;-44
2021/12/02 08:17:30;;;;;;;5.00;1.20;;;2.70;99.90;;;;;;5014830;28;20463;-44
2021/12/02 08:19:58;;;;;;;1.75;1.00;;;2.70;99.90;;;;;;5020825;28;20073;-44
2021/12/02 08:22:25;;;;;;;2.83;1.20;;;2.70;99.90;;;;;;5022928;28;20061;-44
2021/12/02 08:24:52;;;;;;;2.97;0.90;;;2.80;99.90;;;;;;5014497;28;20092;-44
2021/12/02 08:27:19;;;;;;;3.38;0.90;;;2.80;99.90;;;;;;5014244;28;20057;-44
2021/12/02 08:29:46;;;;;;;3.42;0.60;;;2.80;99.90;;;;;;5023074;28;20159;-44
2021/12/02 08:32:13;;;;;;;4.28;0.68;;;2.80;99.90;;;;;;5042857;28;20457;-44
2021/12/02 08:34:40;;;;;;;2.25;0.60;;;2.80;99.90;;;;;;5037981;28;20496;-44
2021/12/02 08:37:09;;;;;;;2.35;0.50;;;2.90;99.90;;;;;;5017651;28;20115;-44
2021/12/02 08:39:36;;;;;;;1.20;0.47;;;2.80;99.90;;;;;;5040812;28;20060;-45
2021/12/02 08:42:04;;;;;;;0.70;0.40;;;2.80;99.90;;;;;;5019100;28;20045;-44
2021/12/02 08:44:32;;;;;;;0.52;0.40;;;2.90;99.90;;;;;;5042058;28;20045;-45
2021/12/02 08:46:59;;;;;;;4.22;0.80;;;2.90;99.90;;;;;;5042531;28;20140;-44
2021/12/02 08:49:26;;;;;;;1.73;0.50;;;2.90;99.90;;;;;;5024648;28;20077;-45
2021/12/02 08:51:53;;;;;;;4.05;0.93;;;2.90;99.90;;;;;;5018338;28;20092;-45
2021/12/02 08:54:22;;;;;;;1.02;0.63;;;2.90;99.90;;;;;;5026198;28;20048;-45
2021/12/02 08:56:50;;;;;;;1.70;0.50;;;2.90;99.90;;;;;;5017796;28;20041;-45
2021/12/02 08:59:17;;;;;;;4.35;0.63;;;2.90;99.90;;;;;;5041216;28;20049;-44
2021/12/02 09:01:44;;;;;;;2.35;0.60;;;2.90;99.90;;;;;;5026131;28;20050;-44
2021/12/02 09:04:11;;;;;;;2.10;0.60;;;2.90;99.90;;;;;;5037635;28;20049;-43
2021/12/02 09:06:38;;;;;;;1.75;0.50;;;2.90;99.90;;;;;;5043713;28;20052;-44
2021/12/02 09:09:05;;;;;;;3.45;0.63;;;2.90;99.90;;;;;;5037486;28;20555;-44
2021/12/02 09:11:34;;;;;;;3.00;0.70;;;2.90;99.90;;;;;;5043659;28;20057;-44
2021/12/02 09:14:04;;;;;;;7.07;0.90;;;2.80;99.90;;;;;;5041563;28;20091;-45
2021/12/02 09:16:31;;;;;;;2.28;0.90;;;2.80;99.90;;;;;;5042868;28;20049;-45
2021/12/02 09:18:59;;;;;;;6.28;1.00;;;2.90;99.90;;;;;;5035678;28;20472;-44
2021/12/02 09:21:26;;;;;;;2.88;0.90;;;2.90;99.90;;;;;;5034237;28;20134;-45
2021/12/02 09:23:53;;;;;;;3.63;1.17;;;2.90;99.90;;;;;;5025539;28;20103;-44
2021/12/02 09:26:20;;;;;;;4.22;1.05;;;3.00;99.90;;;;;;5024748;28;20489;-46
2021/12/02 09:28:52;;;;;;;3.75;1.20;;;3.10;99.90;;;;;;5019267;28;20132;-44
2021/12/02 09:31:20;;;;;;;3.50;0.80;;;3.30;99.90;;;;;;5035404;28;20484;-44
2021/12/02 09:33:47;;;;;;;1.40;0.90;;;3.30;99.90;;;;;;5019425;28;20053;-44
2021/12/02 09:36:14;;;;;;;3.30;0.93;;;3.30;99.90;;;;;;5036684;28;20068;-45
2021/12/02 09:38:41;;;;;;;2.75;0.93;;;3.40;99.90;;;;;;5038290;28;20141;-45
2021/12/02 09:41:08;;;;;;;3.50;0.90;;;3.50;99.90;;;;;;5035233;28;20053;-45
2021/12/02 09:43:35;;;;;;;5.72;0.77;;;3.50;99.90;;;;;;5038650;28;20070;-47
2021/12/02 09:46:03;;;;;;;6.55;1.00;;;3.50;99.90;;;;;;5028093;28;20088;-45
2021/12/02 09:48:31;;;;;;;1.77;0.77;;;3.60;99.90;;;;;;5036661;28;20153;-44
2021/12/02 09:51:04;;;;;;;4.88;0.98;;;3.70;99.90;;;;;;5024198;28;20140;-44
2021/12/02 09:53:35;;;;;;;8.07;1.20;;;3.70;99.90;;;;;;5030296;28;20050;-45
2021/12/02 09:56:11;;;;;;;3.85;1.08;;;3.80;99.90;;;;;;5036926;28;20049;-44
2021/12/02 09:58:38;;;;;;;13.68;4.50;;;3.80;99.90;;;;;;5041401;28;20057;-45
2021/12/02 10:01:08;;;;;;;2.53;1.15;;;3.80;99.90;;;;;;5016959;28;20088;-47
2021/12/02 10:03:37;;;;;;;4.53;1.10;;;3.90;99.90;;;;;;5040257;28;20132;-46
2021/12/02 10:06:07;;;;;;;8.77;1.23;;;4.10;99.90;;;;;;5027280;28;20330;-46
2021/12/02 10:08:40;;;;;;;3.00;0.93;;;4.20;99.90;;;;;;5023884;28;20057;-45
2021/12/02 10:11:08;;;;;;;1.52;0.70;;;4.30;99.90;;;;;;5042577;28;20057;-45
2021/12/02 10:13:42;;;;;;;2.05;0.65;;;4.30;99.90;;;;;;5016442;28;20444;-45
2021/12/02 10:16:16;;;;;;;4.75;0.75;;;4.40;99.90;;;;;;5039868;28;20057;-44
2021/12/02 10:18:53;;;;;;;3.78;0.73;;;4.30;99.90;;;;;;5026583;28;20430;-45
2021/12/02 10:21:25;;;;;;;3.58;0.65;;;4.30;99.90;;;;;;5012585;28;20083;-44
2021/12/02 10:23:53;;;;;;;;;;;4.20;99.90;;;;;;5020821;28;20392;-44
2021/12/02 10:26:20;;;;;;;1.92;0.85;;;4.10;99.90;;;;;;5035297;28;19975;-44
2021/12/02 10:28:47;;;;;;;4.53;0.80;;;4.10;99.90;;;;;;5016567;28;20064;-44
2021/12/02 10:31:23;;;;;;;5.15;0.93;;;4.20;99.90;;;;;;5017552;28;20057;-45
2021/12/02 10:33:53;;;;;;;5.32;1.13;;;4.30;99.90;;;;;;5030287;28;20081;-45
2021/12/02 10:36:29;;;;;;;7.55;1.10;;;4.40;99.90;;;;;;5015557;28;20054;-46
2021/12/02 10:38:56;;;;;;;5.95;0.80;;;4.50;99.90;;;;;;5033344;28;20100;-45
2021/12/02 10:41:25;;;;;;;6.70;1.20;;;4.50;99.90;;;;;;5033448;28;20053;-46
2021/12/02 10:44:10;;;;;;;4.43;0.80;;;4.50;99.90;;;;;;5032996;28;20069;-45
2021/12/02 10:46:42;;;;;;;3.28;0.77;;;4.50;99.90;;;;;;5015543;28;20060;-45
2021/12/02 10:49:14;;;;;;;7.50;0.95;;;4.40;99.90;;;;;;5015676;28;20067;-47
2021/12/02 10:51:43;;;;;;;3.70;1.10;;;4.40;99.90;;;;;;5015060;28;20576;-45
2021/12/02 10:54:13;;;;;;;7.20;1.40;;;4.30;99.90;;;;;;5021999;28;20057;-48
2021/12/02 10:56:41;;;;;;;1.60;0.60;;;4.30;99.90;;;;;;5013056;28;20060;-45
2021/12/02 10:59:23;;;;;;;2.50;0.22;;;4.10;99.90;;;;;;5014598;28;20080;-45
2021/12/02 11:01:52;;;;;;;0.68;0.20;;;3.80;99.90;;;;;;5027847;28;20134;-45
2021/12/02 11:04:19;;;;;;;2.03;0.88;;;3.40;99.90;;;;;;5014065;28;20088;-45
2021/12/02 11:06:46;;;;;;;0.52;0.40;;;3.20;99.90;;;;;;5015014;28;20045;-44
2021/12/02 11:09:29;;;;;;;0.68;0.45;;;3.00;99.90;;;;;;5015097;28;20140;-45
2021/12/02 11:12:13;;;;;;;2.42;0.50;;;3.00;99.90;;;;;;5029094;28;20374;-44
2021/12/02 11:14:52;;;;;;;1.63;0.50;;;3.00;99.90;;;;;;5032917;28;20143;-45
2021/12/02 11:17:21;;;;;;;0.73;0.40;;;3.00;99.90;;;;;;5032652;28;20403;-44
2021/12/02 11:19:49;;;;;;;1.27;0.30;;;3.00;99.90;;;;;;5031113;28;20386;-46
2021/12/02 11:22:16;;;;;;;2.45;0.45;;;3.00;99.90;;;;;;5015444;28;20045;-44
2021/12/02 11:24:43;;;;;;;1.90;0.35;;;2.90;99.90;;;;;;5014639;28;20077;-44
2021/12/02 11:27:16;;;;;;;0.90;0.40;;;2.90;99.90;;;;;;5015315;28;20411;-45
2021/12/02 11:30:09;;;;;;;1.33;0.40;;;2.80;99.90;;;;;;5022767;28;20492;-44
2021/12/02 11:32:40;;;;;;;1.05;0.30;;;2.80;99.90;;;;;;5022932;28;20409;-45
2021/12/02 11:35:12;;;;;;;0.55;0.32;;;2.80;99.90;;;;;;5032386;28;20505;-44
2021/12/02 11:37:39;;;;;;;1.75;0.40;;;2.80;99.90;;;;;;5021057;28;20543;-46
2021/12/02 11:40:08;;;;;;;1.15;0.40;;;2.80;99.90;;;;;;5022800;28;20393;-45
2021/12/02 11:42:36;;;;;;;0.63;0.30;;;2.90;99.90;;;;;;5032106;28;20088;-44
2021/12/02 11:45:04;;;;;;;0.52;0.30;;;3.00;99.90;;;;;;5015013;28;20041;-45
2021/12/02 11:47:32;;;;;;;0.30;0.30;;;3.00;99.90;;;;;;5040298;28;20079;-45
2021/12/02 11:50:00;;;;;;;1.20;0.28;;;3.00;99.90;;;;;;5031566;28;20053;-44
2021/12/02 11:52:27;;;;;;;0.55;0.30;;;3.00;99.90;;;;;;5028184;28;20044;-44
2021/12/02 11:54:56;;;;;;;0.85;0.20;;;3.00;99.90;;;;;;5017414;28;20148;-46
2021/12/02 11:57:23;;;;;;;2.08;0.30;;;3.10;99.90;;;;;;5035887;28;20045;-46
2021/12/02 11:59:50;;;;;;;0.90;0.30;;;3.10;99.90;;;;;;5014103;28;20107;-45
2021/12/02 12:02:18;;;;;;;1.25;0.30;;;3.10;99.90;;;;;;5013912;28;20085;-45
2021/12/02 12:04:54;;;;;;;1.40;0.40;;;3.10;99.90;;;;;;5031950;28;20057;-45
2021/12/02 12:07:22;;;;;;;1.67;0.55;;;3.10;99.90;;;;;;5032209;28;20091;-46
2021/12/02 12:09:49;;;;;;;6.70;0.50;;;3.00;99.90;;;;;;5031399;28;20095;-44
2021/12/02 12:12:16;;;;;;;3.38;0.70;;;3.00;99.90;;;;;;5014706;28;20131;-44
2021/12/02 12:14:44;;;;;;;3.17;0.70;;;3.00;99.90;;;;;;5031417;28;20053;-45
2021/12/02 12:17:12;;;;;;;1.60;0.50;;;2.90;99.90;;;;;;5029728;28;20469;-45
2021/12/02 12:19:40;;;;;;;1.63;0.40;;;2.90;99.90;;;;;;5012682;28;20057;-45
2021/12/02 12:22:09;;;;;;;1.48;0.60;;;2.80;99.90;;;;;;5039874;28;20050;-45
2021/12/02 12:24:42;;;;;;;2.95;0.80;;;2.70;99.90;;;;;;5030072;28;20049;-44
2021/12/02 12:27:14;;;;;;;1.42;0.50;;;2.70;99.90;;;;;;5004514;28;20053;-47
2021/12/02 12:29:40;;;;;;;;;;;2.70;99.90;;;;;;5026847;28;20460;-48
2021/12/02 12:35:07;;;;;;;1.17;0.52;;;2.70;99.90;;;;;;5028438;28;20053;-44
2021/12/02 12:37:58;;;;;;;2.83;0.40;;;2.70;99.90;;;;;;5016196;28;20127;-44
2021/12/02 12:40:29;;;;;;;1.00;0.38;;;2.70;99.90;;;;;;5026025;28;20824;-45
2021/12/02 12:43:25;;;;;;;2.47;0.63;;;2.60;99.90;;;;;;5024575;28;20133;-44
2021/12/02 12:46:10;;;;;;;3.17;0.80;;;2.60;99.90;;;;;;5010334;28;20069;-44
2021/12/02 12:48:37;;;;;;;2.40;0.45;;;2.60;99.90;;;;;;5009321;28;20452;-44
2021/12/02 12:51:12;;;;;;;1.60;0.60;;;2.60;99.90;;;;;;5005358;28;20074;-46
2021/12/02 12:53:39;;;;;;;2.35;0.63;;;2.70;99.90;;;;;;5006150;28;20136;-45
2021/12/02 12:56:09;;;;;;;6.00;1.33;;;2.70;99.90;;;;;;4990802;28;20453;-43
2021/12/02 12:58:37;;;;;;;3.50;0.80;;;2.80;99.90;;;;;;5011542;28;20046;-44
2021/12/02 13:01:05;;;;;;;4.38;0.80;;;2.90;99.90;;;;;;5011137;28;20104;-44
2021/12/02 13:03:39;;;;;;;3.35;0.50;;;3.00;99.90;;;;;;4994638;28;20076;-44
2021/12/02 13:06:10;;;;;;;2.45;0.60;;;3.10;99.90;;;;;;5007694;28;20062;-45
2021/12/02 13:08:46;;;;;;;3.13;0.60;;;3.20;99.90;;;;;;4992577;28;20053;-45
2021/12/02 13:11:16;;;;;;;3.95;0.93;;;3.20;99.90;;;;;;4994503;28;20053;-44
2021/12/02 13:13:43;;;;;;;3.60;0.60;;;3.20;99.90;;;;;;5010634;28;20069;-44